sensor_id;sensor_type;location;lat;lon;timestamp;pressure;altitude;pressure_sealevel;temperature;humidity
47524;BME280;33253;42.144;25.884;2022-08-19T00:01:37;99850.72;;;26.34;62.59
47524;BME280;33253;42.144;25.884;2022-08-19T00:04:05;99854.88;;;26.18;65.17
47524;BME280;33253;42.144;25.884;2022-08-19T00:06:31;99876.81;;;26.21;65.33
47524;BME280;33253;42.144;25.884;2022-08-19T00:08:58;99883.47;;;26.08;64.90
47524;BME280;33253;42.144;25.884;2022-08-19T00:11:25;99880.91;;;26.05;64.48
47524;BME280;33253;42.144;25.884;2022-08-19T00:13:55;99874.56;;;25.85;64.74
47524;BME280;33253;42.144;25.884;2022-08-19T00:16:22;99866.59;;;25.61;65.15
47524;BME280;33253;42.144;25.884;2022-08-19T00:18:48;99892.88;;;25.66;65.26
47524;BME280;33253;42.144;25.884;2022-08-19T00:21:14;99898.72;;;25.74;64.95
47524;BME280;33253;42.144;25.884;2022-08-19T00:23:39;99896.06;;;25.76;64.56
47524;BME280;33253;42.144;25.884;2022-08-19T00:26:06;99901.38;;;25.74;64.83
47524;BME280;33253;42.144;25.884;2022-08-19T00:28:33;99897.97;;;25.71;64.86
47524;BME280;33253;42.144;25.884;2022-08-19T00:31:01;99883.75;;;25.75;64.51
47524;BME280;33253;42.144;25.884;2022-08-19T00:33:29;99884.66;;;25.74;64.79
47524;BME280;33253;42.144;25.884;2022-08-19T00:35:58;99879.38;;;25.74;64.89
47524;BME280;33253;42.144;25.884;2022-08-19T00:38:24;99862.91;;;25.65;64.36
47524;BME280;33253;42.144;25.884;2022-08-19T00:40:50;99870.69;;;25.70;64.36
47524;BME280;33253;42.144;25.884;2022-08-19T00:43:19;99881.25;;;25.70;65.13
47524;BME280;33253;42.144;25.884;2022-08-19T00:45:46;99881.63;;;25.59;64.73
47524;BME280;33253;42.144;25.884;2022-08-19T00:48:13;99877.56;;;25.49;65.35
47524;BME280;33253;42.144;25.884;2022-08-19T00:50:40;99885.56;;;25.47;65.63
47524;BME280;33253;42.144;25.884;2022-08-19T00:53:12;99884.03;;;25.40;66.16
47524;BME280;33253;42.144;25.884;2022-08-19T00:55:42;99878.88;;;25.35;66.53
47524;BME280;33253;42.144;25.884;2022-08-19T00:58:12;99884.28;;;25.32;66.23
47524;BME280;33253;42.144;25.884;2022-08-19T01:00:38;99884.22;;;25.34;66.10
47524;BME280;33253;42.144;25.884;2022-08-19T01:03:10;99883.28;;;25.37;65.68
47524;BME280;33253;42.144;25.884;2022-08-19T01:05:36;99866.91;;;25.25;65.66
47524;BME280;33253;42.144;25.884;2022-08-19T01:08:04;99883.97;;;25.42;65.40
47524;BME280;33253;42.144;25.884;2022-08-19T01:10:33;99864.19;;;25.27;65.49
47524;BME280;33253;42.144;25.884;2022-08-19T01:13:02;99890.84;;;25.47;65.03
47524;BME280;33253;42.144;25.884;2022-08-19T01:15:42;99885.50;;;25.49;64.88
47524;BME280;33253;42.144;25.884;2022-08-19T01:18:11;99881.47;;;25.39;65.31
47524;BME280;33253;42.144;25.884;2022-08-19T01:20:37;99864.34;;;25.22;65.56
47524;BME280;33253;42.144;25.884;2022-08-19T01:23:04;99891.16;;;25.38;65.58
47524;BME280;33253;42.144;25.884;2022-08-19T01:25:34;99883.56;;;25.27;65.88
47524;BME280;33253;42.144;25.884;2022-08-19T01:28:02;99875.03;;;25.19;65.99
47524;BME280;33253;42.144;25.884;2022-08-19T01:30:33;99882.03;;;25.20;66.15
47524;BME280;33253;42.144;25.884;2022-08-19T01:32:59;99879.66;;;25.12;67.44
47524;BME280;33253;42.144;25.884;2022-08-19T01:35:28;99878.38;;;24.97;68.54
47524;BME280;33253;42.144;25.884;2022-08-19T01:37:57;99888.41;;;24.86;69.53
47524;BME280;33253;42.144;25.884;2022-08-19T01:40:26;99881.09;;;24.66;70.31
47524;BME280;33253;42.144;25.884;2022-08-19T01:42:53;99886.25;;;24.70;69.82
47524;BME280;33253;42.144;25.884;2022-08-19T01:45:20;99888.22;;;24.62;69.26
47524;BME280;33253;42.144;25.884;2022-08-19T01:47:47;99888.94;;;24.39;69.66
47524;BME280;33253;42.144;25.884;2022-08-19T01:50:12;99897.84;;;24.03;71.23
47524;BME280;33253;42.144;25.884;2022-08-19T01:52:39;99892.41;;;24.10;70.63
47524;BME280;33253;42.144;25.884;2022-08-19T01:55:08;99898.31;;;23.85;71.72
47524;BME280;33253;42.144;25.884;2022-08-19T01:57:34;99897.28;;;23.92;71.30
47524;BME280;33253;42.144;25.884;2022-08-19T02:00:00;99888.50;;;23.90;71.24
47524;BME280;33253;42.144;25.884;2022-08-19T02:02:27;99877.09;;;23.89;70.50
47524;BME280;33253;42.144;25.884;2022-08-19T02:04:52;99885.72;;;23.96;70.85
47524;BME280;33253;42.144;25.884;2022-08-19T02:07:20;99889.13;;;24.01;71.10
47524;BME280;33253;42.144;25.884;2022-08-19T02:09:47;99882.19;;;23.97;71.18
47524;BME280;33253;42.144;25.884;2022-08-19T02:12:13;99891.78;;;24.00;71.23
47524;BME280;33253;42.144;25.884;2022-08-19T02:14:38;99892.66;;;24.00;71.53
47524;BME280;33253;42.144;25.884;2022-08-19T02:17:04;99892.34;;;24.11;70.97
47524;BME280;33253;42.144;25.884;2022-08-19T02:19:29;99890.38;;;24.19;70.37
47524;BME280;33253;42.144;25.884;2022-08-19T02:21:58;99879.13;;;24.13;70.57
47524;BME280;33253;42.144;25.884;2022-08-19T02:24:24;99898.31;;;24.18;70.53
47524;BME280;33253;42.144;25.884;2022-08-19T02:26:49;99897.66;;;24.10;70.83
47524;BME280;33253;42.144;25.884;2022-08-19T02:29:15;99911.13;;;24.00;71.55
47524;BME280;33253;42.144;25.884;2022-08-19T02:31:40;99887.16;;;23.75;71.89
47524;BME280;33253;42.144;25.884;2022-08-19T02:34:06;99898.25;;;23.88;72.34
47524;BME280;33253;42.144;25.884;2022-08-19T02:36:31;99882.41;;;23.88;71.74
47524;BME280;33253;42.144;25.884;2022-08-19T02:38:57;99910.28;;;23.98;72.02
47524;BME280;33253;42.144;25.884;2022-08-19T02:41:25;99918.81;;;24.08;71.29
47524;BME280;33253;42.144;25.884;2022-08-19T02:43:52;99910.06;;;24.06;71.36
47524;BME280;33253;42.144;25.884;2022-08-19T02:46:28;99913.41;;;24.13;71.06
47524;BME280;33253;42.144;25.884;2022-08-19T02:48:57;99922.13;;;24.15;70.56
47524;BME280;33253;42.144;25.884;2022-08-19T02:51:28;99922.78;;;24.23;70.42
47524;BME280;33253;42.144;25.884;2022-08-19T02:53:54;99931.50;;;24.27;69.94
47524;BME280;33253;42.144;25.884;2022-08-19T02:56:20;99926.28;;;24.23;69.90
47524;BME280;33253;42.144;25.884;2022-08-19T02:58:46;99922.19;;;24.13;70.09
47524;BME280;33253;42.144;25.884;2022-08-19T03:01:21;99935.59;;;24.05;71.13
47524;BME280;33253;42.144;25.884;2022-08-19T03:03:47;99939.06;;;24.08;70.77
47524;BME280;33253;42.144;25.884;2022-08-19T03:06:14;99941.38;;;23.85;71.47
47524;BME280;33253;42.144;25.884;2022-08-19T03:08:42;99951.16;;;23.80;71.93
47524;BME280;33253;42.144;25.884;2022-08-19T03:11:21;99942.53;;;23.73;71.40
47524;BME280;33253;42.144;25.884;2022-08-19T03:13:47;99932.34;;;23.59;71.85
47524;BME280;33253;42.144;25.884;2022-08-19T03:16:16;99954.50;;;23.87;72.13
47524;BME280;33253;42.144;25.884;2022-08-19T03:18:42;99951.78;;;23.92;71.31
47524;BME280;33253;42.144;25.884;2022-08-19T03:21:09;99956.63;;;24.07;70.92
47524;BME280;33253;42.144;25.884;2022-08-19T03:23:35;99945.06;;;24.13;70.33
47524;BME280;33253;42.144;25.884;2022-08-19T03:26:05;99954.50;;;24.20;69.48
47524;BME280;33253;42.144;25.884;2022-08-19T03:28:31;99962.81;;;24.06;70.45
47524;BME280;33253;42.144;25.884;2022-08-19T03:31:03;99962.84;;;24.04;70.24
47524;BME280;33253;42.144;25.884;2022-08-19T03:33:30;99968.50;;;23.89;71.07
47524;BME280;33253;42.144;25.884;2022-08-19T03:36:13;99959.41;;;23.66;71.92
47524;BME280;33253;42.144;25.884;2022-08-19T03:38:52;99965.94;;;23.51;72.70
47524;BME280;33253;42.144;25.884;2022-08-19T03:41:23;99973.69;;;23.57;72.75
47524;BME280;33253;42.144;25.884;2022-08-19T03:43:49;99941.38;;;23.51;72.37
47524;BME280;33253;42.144;25.884;2022-08-19T03:46:29;99974.41;;;23.64;72.44
47524;BME280;33253;42.144;25.884;2022-08-19T03:48:57;99954.44;;;23.55;72.90
47524;BME280;33253;42.144;25.884;2022-08-19T03:53:51;99976.75;;;23.77;71.85
47524;BME280;33253;42.144;25.884;2022-08-19T03:56:18;99966.25;;;23.73;72.21
47524;BME280;33253;42.144;25.884;2022-08-19T03:58:44;99987.16;;;23.81;72.08
47524;BME280;33253;42.144;25.884;2022-08-19T04:01:11;99976.44;;;23.87;71.94
47524;BME280;33253;42.144;25.884;2022-08-19T04:03:39;99988.69;;;23.90;71.88
47524;BME280;33253;42.144;25.884;2022-08-19T04:06:22;99989.53;;;23.92;71.80
47524;BME280;33253;42.144;25.884;2022-08-19T04:08:50;99980.69;;;23.95;71.48
47524;BME280;33253;42.144;25.884;2022-08-19T04:11:19;99984.97;;;23.99;71.48
47524;BME280;33253;42.144;25.884;2022-08-19T04:13:49;99981.47;;;23.98;71.50
47524;BME280;33253;42.144;25.884;2022-08-19T04:16:16;99954.78;;;23.76;72.54
47524;BME280;33253;42.144;25.884;2022-08-19T04:18:42;99988.03;;;23.82;72.64
47524;BME280;33253;42.144;25.884;2022-08-19T04:21:08;99995.19;;;23.77;72.17
47524;BME280;33253;42.144;25.884;2022-08-19T04:23:40;99994.88;;;23.89;71.82
47524;BME280;33253;42.144;25.884;2022-08-19T04:26:05;99997.34;;;23.97;72.14
47524;BME280;33253;42.144;25.884;2022-08-19T04:28:31;99973.66;;;23.95;72.33
47524;BME280;33253;42.144;25.884;2022-08-19T04:30:56;99993.38;;;24.13;73.18
47524;BME280;33253;42.144;25.884;2022-08-19T04:33:24;99994.84;;;24.25;72.88
47524;BME280;33253;42.144;25.884;2022-08-19T04:35:51;99999.19;;;24.26;71.82
47524;BME280;33253;42.144;25.884;2022-08-19T04:38:20;100007.69;;;24.37;70.41
47524;BME280;33253;42.144;25.884;2022-08-19T04:40:48;100004.84;;;24.45;70.05
47524;BME280;33253;42.144;25.884;2022-08-19T04:43:34;100000.16;;;24.55;69.79
47524;BME280;33253;42.144;25.884;2022-08-19T04:46:08;99996.38;;;24.65;69.64
47524;BME280;33253;42.144;25.884;2022-08-19T04:48:34;99995.28;;;24.73;69.70
47524;BME280;33253;42.144;25.884;2022-08-19T04:51:00;99964.00;;;24.59;68.98
47524;BME280;33253;42.144;25.884;2022-08-19T04:53:28;99983.00;;;24.71;69.19
47524;BME280;33253;42.144;25.884;2022-08-19T04:56:04;99996.69;;;24.84;68.16
47524;BME280;33253;42.144;25.884;2022-08-19T04:58:33;100013.56;;;24.47;69.64
47524;BME280;33253;42.144;25.884;2022-08-19T05:00:59;99958.81;;;23.89;71.53
47524;BME280;33253;42.144;25.884;2022-08-19T05:03:25;100008.47;;;23.72;73.46
47524;BME280;33253;42.144;25.884;2022-08-19T05:05:51;100012.56;;;23.84;73.30
47524;BME280;33253;42.144;25.884;2022-08-19T05:08:19;100007.34;;;23.82;75.72
47524;BME280;33253;42.144;25.884;2022-08-19T05:10:46;100021.25;;;23.87;75.52
47524;BME280;33253;42.144;25.884;2022-08-19T05:13:13;100002.97;;;23.81;75.76
47524;BME280;33253;42.144;25.884;2022-08-19T05:15:39;100020.28;;;23.93;75.69
47524;BME280;33253;42.144;25.884;2022-08-19T05:18:05;100023.44;;;24.08;74.41
47524;BME280;33253;42.144;25.884;2022-08-19T05:20:50;100007.00;;;23.98;73.92
47524;BME280;33253;42.144;25.884;2022-08-19T05:23:34;100015.44;;;24.11;73.61
47524;BME280;33253;42.144;25.884;2022-08-19T05:26:00;100025.34;;;24.01;74.32
47524;BME280;33253;42.144;25.884;2022-08-19T05:28:26;100025.56;;;24.26;75.44
47524;BME280;33253;42.144;25.884;2022-08-19T05:30:53;100014.78;;;24.35;74.35
47524;BME280;33253;42.144;25.884;2022-08-19T05:33:21;100006.34;;;24.54;73.32
47524;BME280;33253;42.144;25.884;2022-08-19T05:35:47;100006.03;;;24.66;72.02
47524;BME280;33253;42.144;25.884;2022-08-19T05:38:15;99976.38;;;24.57;71.85
47524;BME280;33253;42.144;25.884;2022-08-19T05:40:41;99985.72;;;24.68;71.22
47524;BME280;33253;42.144;25.884;2022-08-19T05:43:07;100009.41;;;25.01;70.46
47524;BME280;33253;42.144;25.884;2022-08-19T05:45:38;100000.97;;;25.18;69.72
47524;BME280;33253;42.144;25.884;2022-08-19T05:48:04;100003.31;;;25.28;69.61
47524;BME280;33253;42.144;25.884;2022-08-19T05:50:29;99967.38;;;25.22;68.97
47524;BME280;33253;42.144;25.884;2022-08-19T05:52:55;99994.50;;;25.57;68.83
47524;BME280;33253;42.144;25.884;2022-08-19T05:55:21;99998.44;;;25.71;67.10
47524;BME280;33253;42.144;25.884;2022-08-19T05:57:48;99994.78;;;25.75;67.58
47524;BME280;33253;42.144;25.884;2022-08-19T06:00:14;99998.06;;;25.81;67.83
47524;BME280;33253;42.144;25.884;2022-08-19T06:02:40;99994.97;;;25.95;67.31
47524;BME280;33253;42.144;25.884;2022-08-19T06:05:07;100005.22;;;26.06;67.36
47524;BME280;33253;42.144;25.884;2022-08-19T06:07:35;100007.47;;;26.17;67.25
47524;BME280;33253;42.144;25.884;2022-08-19T06:10:03;100001.75;;;26.29;66.30
47524;BME280;33253;42.144;25.884;2022-08-19T06:12:33;99999.84;;;26.33;66.18
47524;BME280;33253;42.144;25.884;2022-08-19T06:15:11;100003.91;;;26.43;67.50
47524;BME280;33253;42.144;25.884;2022-08-19T06:17:37;100015.94;;;26.52;65.98
47524;BME280;33253;42.144;25.884;2022-08-19T06:20:06;99954.38;;;26.22;65.96
47524;BME280;33253;42.144;25.884;2022-08-19T06:22:37;100003.09;;;26.65;64.67
47524;BME280;33253;42.144;25.884;2022-08-19T06:25:06;100003.28;;;26.84;62.73
47524;BME280;33253;42.144;25.884;2022-08-19T06:27:32;99988.66;;;26.98;62.49
47524;BME280;33253;42.144;25.884;2022-08-19T06:29:58;99994.13;;;27.17;61.76
47524;BME280;33253;42.144;25.884;2022-08-19T06:32:24;99997.81;;;27.35;61.54
47524;BME280;33253;42.144;25.884;2022-08-19T06:34:49;99998.63;;;27.37;60.40
47524;BME280;33253;42.144;25.884;2022-08-19T06:37:15;99999.91;;;27.49;60.33
47524;BME280;33253;42.144;25.884;2022-08-19T06:39:43;99996.94;;;27.56;60.31
47524;BME280;33253;42.144;25.884;2022-08-19T06:42:09;100002.47;;;27.72;59.12
47524;BME280;33253;42.144;25.884;2022-08-19T06:44:38;100000.13;;;27.87;58.63
47524;BME280;33253;42.144;25.884;2022-08-19T06:47:07;100001.44;;;27.97;60.43
47524;BME280;33253;42.144;25.884;2022-08-19T06:49:34;99991.47;;;28.04;58.56
47524;BME280;33253;42.144;25.884;2022-08-19T06:52:00;100004.00;;;28.21;58.23
47524;BME280;33253;42.144;25.884;2022-08-19T06:54:27;99998.69;;;28.21;57.46
47524;BME280;33253;42.144;25.884;2022-08-19T06:56:55;99974.06;;;28.17;56.88
47524;BME280;33253;42.144;25.884;2022-08-19T06:59:23;99995.78;;;28.46;55.76
47524;BME280;33253;42.144;25.884;2022-08-19T07:01:54;100004.16;;;28.57;56.39
47524;BME280;33253;42.144;25.884;2022-08-19T07:04:23;99968.19;;;28.50;55.87
47524;BME280;33253;42.144;25.884;2022-08-19T07:06:50;100003.38;;;28.75;57.17
47524;BME280;33253;42.144;25.884;2022-08-19T07:09:17;100012.22;;;28.75;57.09
47524;BME280;33253;42.144;25.884;2022-08-19T07:11:47;100009.28;;;28.81;59.25
47524;BME280;33253;42.144;25.884;2022-08-19T07:14:15;100000.53;;;28.79;54.93
47524;BME280;33253;42.144;25.884;2022-08-19T07:16:43;99996.22;;;28.77;56.59
47524;BME280;33253;42.144;25.884;2022-08-19T07:19:11;100007.19;;;28.88;56.80
47524;BME280;33253;42.144;25.884;2022-08-19T07:21:37;100005.28;;;28.92;57.35
47524;BME280;33253;42.144;25.884;2022-08-19T07:24:03;100000.59;;;28.97;54.71
47524;BME280;33253;42.144;25.884;2022-08-19T07:26:33;99968.91;;;28.92;53.57
47524;BME280;33253;42.144;25.884;2022-08-19T07:28:59;100004.44;;;29.28;52.81
47524;BME280;33253;42.144;25.884;2022-08-19T07:31:27;100004.66;;;29.42;51.98
47524;BME280;33253;42.144;25.884;2022-08-19T07:33:54;99993.06;;;29.43;51.84
47524;BME280;33253;42.144;25.884;2022-08-19T07:36:26;99999.38;;;29.60;51.15
47524;BME280;33253;42.144;25.884;2022-08-19T07:38:56;99997.56;;;29.60;51.50
47524;BME280;33253;42.144;25.884;2022-08-19T07:41:24;99996.78;;;29.58;51.17
47524;BME280;33253;42.144;25.884;2022-08-19T07:43:51;99999.69;;;29.71;50.95
47524;BME280;33253;42.144;25.884;2022-08-19T07:46:17;99975.75;;;29.71;50.57
47524;BME280;33253;42.144;25.884;2022-08-19T07:48:45;100003.59;;;29.81;51.53
47524;BME280;33253;42.144;25.884;2022-08-19T07:51:14;100003.09;;;29.92;50.41
47524;BME280;33253;42.144;25.884;2022-08-19T07:53:40;99982.56;;;29.94;50.07
47524;BME280;33253;42.144;25.884;2022-08-19T07:56:06;99986.41;;;30.06;50.22
47524;BME280;33253;42.144;25.884;2022-08-19T07:58:34;99996.16;;;30.23;49.13
47524;BME280;33253;42.144;25.884;2022-08-19T08:01:02;99997.22;;;30.37;49.38
47524;BME280;33253;42.144;25.884;2022-08-19T08:03:28;99996.47;;;30.52;50.84
47524;BME280;33253;42.144;25.884;2022-08-19T08:06:13;99968.59;;;30.24;50.12
47524;BME280;33253;42.144;25.884;2022-08-19T08:08:58;99996.38;;;30.54;48.83
47524;BME280;33253;42.144;25.884;2022-08-19T08:11:45;99995.97;;;29.93;49.57
47524;BME280;33253;42.144;25.884;2022-08-19T08:14:20;99996.91;;;29.92;49.26
47524;BME280;33253;42.144;25.884;2022-08-19T08:16:47;99990.81;;;30.07;52.08
47524;BME280;33253;42.144;25.884;2022-08-19T08:19:14;99993.69;;;30.02;49.35
47524;BME280;33253;42.144;25.884;2022-08-19T08:21:40;99991.41;;;30.12;48.20
47524;BME280;33253;42.144;25.884;2022-08-19T08:24:06;99982.28;;;30.34;47.41
47524;BME280;33253;42.144;25.884;2022-08-19T08:26:32;99985.88;;;30.33;47.67
47524;BME280;33253;42.144;25.884;2022-08-19T08:28:57;99984.78;;;30.37;47.57
47524;BME280;33253;42.144;25.884;2022-08-19T08:31:23;99973.41;;;30.51;46.28
47524;BME280;33253;42.144;25.884;2022-08-19T08:33:48;99977.91;;;30.66;45.21
47524;BME280;33253;42.144;25.884;2022-08-19T08:36:14;99972.84;;;30.78;45.13
47524;BME280;33253;42.144;25.884;2022-08-19T08:38:42;99974.56;;;30.95;47.35
47524;BME280;33253;42.144;25.884;2022-08-19T08:43:40;99971.50;;;31.19;44.30
47524;BME280;33253;42.144;25.884;2022-08-19T08:51:44;99960.81;;;31.35;41.54
47524;BME280;33253;42.144;25.884;2022-08-19T08:54:15;99959.44;;;31.27;42.17
47524;BME280;33253;42.144;25.884;2022-08-19T08:56:44;99960.34;;;31.42;43.14
47524;BME280;33253;42.144;25.884;2022-08-19T09:01:41;99953.34;;;31.56;45.63
47524;BME280;33253;42.144;25.884;2022-08-19T09:04:07;99961.59;;;31.67;45.10
47524;BME280;33253;42.144;25.884;2022-08-19T09:09:37;99947.56;;;31.94;39.23
47524;BME280;33253;42.144;25.884;2022-08-19T09:14:43;99934.66;;;31.86;39.46
47524;BME280;33253;42.144;25.884;2022-08-19T09:17:11;99941.09;;;32.27;39.44
47524;BME280;33253;42.144;25.884;2022-08-19T09:22:26;99932.50;;;32.51;43.09
47524;BME280;33253;42.144;25.884;2022-08-19T09:24:52;99940.28;;;32.68;42.59
47524;BME280;33253;42.144;25.884;2022-08-19T09:27:21;99910.78;;;32.70;37.13
47524;BME280;33253;42.144;25.884;2022-08-19T09:29:49;99933.75;;;33.01;40.99
47524;BME280;33253;42.144;25.884;2022-08-19T09:32:14;99935.81;;;33.11;40.82
47524;BME280;33253;42.144;25.884;2022-08-19T09:34:40;99917.63;;;33.30;35.36
47524;BME280;33253;42.144;25.884;2022-08-19T09:37:06;99932.09;;;33.53;35.59
47524;BME280;33253;42.144;25.884;2022-08-19T09:39:32;99932.78;;;33.70;35.23
47524;BME280;33253;42.144;25.884;2022-08-19T09:41:57;99925.28;;;33.75;38.73
47524;BME280;33253;42.144;25.884;2022-08-19T09:44:23;99925.66;;;33.83;36.11
47524;BME280;33253;42.144;25.884;2022-08-19T09:46:48;99922.75;;;33.86;36.82
47524;BME280;33253;42.144;25.884;2022-08-19T09:49:16;99930.34;;;33.80;37.13
47524;BME280;33253;42.144;25.884;2022-08-19T09:51:42;99899.78;;;33.57;34.00
47524;BME280;33253;42.144;25.884;2022-08-19T09:54:08;99928.50;;;33.80;36.29
47524;BME280;33253;42.144;25.884;2022-08-19T09:56:33;99918.03;;;33.90;36.38
47524;BME280;33253;42.144;25.884;2022-08-19T09:58:59;99917.72;;;34.08;36.35
47524;BME280;33253;42.144;25.884;2022-08-19T10:01:30;99910.63;;;34.19;35.75
47524;BME280;33253;42.144;25.884;2022-08-19T10:03:57;99890.25;;;34.30;34.38
47524;BME280;33253;42.144;25.884;2022-08-19T10:06:25;99911.28;;;34.10;34.36
47524;BME280;33253;42.144;25.884;2022-08-19T10:08:54;99914.59;;;34.14;34.06
47524;BME280;33253;42.144;25.884;2022-08-19T10:11:20;99888.69;;;34.01;32.71
47524;BME280;33253;42.144;25.884;2022-08-19T10:13:46;99909.75;;;34.32;33.81
47524;BME280;33253;42.144;25.884;2022-08-19T10:16:16;99905.31;;;34.57;33.00
47524;BME280;33253;42.144;25.884;2022-08-19T10:18:43;99901.75;;;34.69;32.59
47524;BME280;33253;42.144;25.884;2022-08-19T10:21:21;99887.34;;;34.33;32.20
47524;BME280;33253;42.144;25.884;2022-08-19T10:23:49;99909.94;;;34.55;31.93
47524;BME280;33253;42.144;25.884;2022-08-19T10:26:18;99903.06;;;34.63;32.19
47524;BME280;33253;42.144;25.884;2022-08-19T10:28:44;99899.03;;;34.82;31.35
47524;BME280;33253;42.144;25.884;2022-08-19T10:31:13;99906.78;;;34.98;30.40
47524;BME280;33253;42.144;25.884;2022-08-19T10:33:40;99906.91;;;35.21;32.85
47524;BME280;33253;42.144;25.884;2022-08-19T10:36:10;99894.16;;;35.36;31.87
47524;BME280;33253;42.144;25.884;2022-08-19T10:38:36;99894.47;;;35.55;30.02
47524;BME280;33253;42.144;25.884;2022-08-19T10:41:11;99892.31;;;35.72;31.40
47524;BME280;33253;42.144;25.884;2022-08-19T10:43:39;99885.31;;;35.58;31.01
47524;BME280;33253;42.144;25.884;2022-08-19T10:46:07;99886.22;;;35.81;29.07
47524;BME280;33253;42.144;25.884;2022-08-19T10:48:34;99883.81;;;35.89;29.17
47524;BME280;33253;42.144;25.884;2022-08-19T10:51:00;99869.91;;;35.95;29.19
47524;BME280;33253;42.144;25.884;2022-08-19T10:53:44;99867.81;;;36.22;30.64
47524;BME280;33253;42.144;25.884;2022-08-19T10:56:09;99864.63;;;36.28;29.38
47524;BME280;33253;42.144;25.884;2022-08-19T10:58:53;99836.53;;;35.75;30.45
47524;BME280;33253;42.144;25.884;2022-08-19T11:01:19;99861.56;;;35.76;30.51
47524;BME280;33253;42.144;25.884;2022-08-19T11:03:45;99859.38;;;36.04;30.15
47524;BME280;33253;42.144;25.884;2022-08-19T11:06:11;99863.28;;;36.22;31.20
47524;BME280;33253;42.144;25.884;2022-08-19T11:08:37;99855.38;;;35.98;30.21
47524;BME280;33253;42.144;25.884;2022-08-19T11:11:05;99854.22;;;36.35;27.49
47524;BME280;33253;42.144;25.884;2022-08-19T11:13:35;99857.19;;;36.43;27.28
47524;BME280;33253;42.144;25.884;2022-08-19T11:16:08;99826.13;;;36.39;29.14
47524;BME280;33253;42.144;25.884;2022-08-19T11:18:36;99851.50;;;36.57;29.44
47524;BME280;33253;42.144;25.884;2022-08-19T11:21:07;99838.09;;;36.79;26.84
47524;BME280;33253;42.144;25.884;2022-08-19T11:23:32;99842.88;;;36.75;27.90
47524;BME280;33253;42.144;25.884;2022-08-19T11:25:58;99838.97;;;36.47;26.95
47524;BME280;33253;42.144;25.884;2022-08-19T11:28:24;99841.84;;;36.55;28.38
47524;BME280;33253;42.144;25.884;2022-08-19T11:30:50;99843.66;;;36.66;26.73
47524;BME280;33253;42.144;25.884;2022-08-19T11:33:15;99836.19;;;36.69;27.82
47524;BME280;33253;42.144;25.884;2022-08-19T11:35:41;99812.19;;;36.56;27.87
47524;BME280;33253;42.144;25.884;2022-08-19T11:38:06;99834.16;;;36.62;30.56
47524;BME280;33253;42.144;25.884;2022-08-19T11:40:32;99827.34;;;36.46;27.23
47524;BME280;33253;42.144;25.884;2022-08-19T11:42:58;99812.41;;;36.53;28.93
47524;BME280;33253;42.144;25.884;2022-08-19T11:45:26;99812.72;;;36.71;27.01
47524;BME280;33253;42.144;25.884;2022-08-19T11:47:52;99816.47;;;36.91;29.09
47524;BME280;33253;42.144;25.884;2022-08-19T11:50:18;99806.81;;;37.10;26.41
47524;BME280;33253;42.144;25.884;2022-08-19T11:52:44;99805.03;;;36.99;25.88
47524;BME280;33253;42.144;25.884;2022-08-19T11:55:29;99810.16;;;37.23;28.41
47524;BME280;33253;42.144;25.884;2022-08-19T11:57:55;99810.44;;;37.20;25.96
47524;BME280;33253;42.144;25.884;2022-08-19T12:00:20;99787.84;;;36.90;26.24
47524;BME280;33253;42.144;25.884;2022-08-19T12:02:47;99803.09;;;37.22;25.72
47524;BME280;33253;42.144;25.884;2022-08-19T12:05:12;99805.25;;;37.29;25.46
47524;BME280;33253;42.144;25.884;2022-08-19T12:07:38;99810.66;;;37.60;26.17
47524;BME280;33253;42.144;25.884;2022-08-19T12:10:04;99782.72;;;37.82;28.18
47524;BME280;33253;42.144;25.884;2022-08-19T12:12:31;99800.56;;;38.24;25.73
47524;BME280;33253;42.144;25.884;2022-08-19T12:14:56;99802.88;;;38.38;25.55
47524;BME280;33253;42.144;25.884;2022-08-19T12:17:25;99794.66;;;38.30;25.28
47524;BME280;33253;42.144;25.884;2022-08-19T12:19:52;99796.84;;;38.05;27.08
47524;BME280;33253;42.144;25.884;2022-08-19T12:22:18;99801.28;;;37.33;26.96
47524;BME280;33253;42.144;25.884;2022-08-19T12:24:43;99804.00;;;36.90;26.41
47524;BME280;33253;42.144;25.884;2022-08-19T12:27:09;99788.03;;;36.66;27.13
47524;BME280;33253;42.144;25.884;2022-08-19T12:29:34;99787.84;;;36.58;27.86
47524;BME280;33253;42.144;25.884;2022-08-19T12:32:00;99786.00;;;36.58;27.23
47524;BME280;33253;42.144;25.884;2022-08-19T12:34:28;99766.56;;;36.87;25.34
47524;BME280;33253;42.144;25.884;2022-08-19T12:37:01;99777.16;;;37.21;28.04
47524;BME280;33253;42.144;25.884;2022-08-19T12:39:28;99780.75;;;37.32;26.56
47524;BME280;33253;42.144;25.884;2022-08-19T12:41:55;99743.91;;;37.11;27.94
47524;BME280;33253;42.144;25.884;2022-08-19T12:44:22;99769.00;;;36.90;23.53
47524;BME280;33253;42.144;25.884;2022-08-19T12:46:47;99774.53;;;36.89;25.48
47524;BME280;33253;42.144;25.884;2022-08-19T12:49:15;99785.47;;;37.18;24.89
47524;BME280;33253;42.144;25.884;2022-08-19T12:51:40;99771.88;;;37.20;23.89
47524;BME280;33253;42.144;25.884;2022-08-19T12:54:06;99774.22;;;37.55;24.40
47524;BME280;33253;42.144;25.884;2022-08-19T12:56:31;99772.53;;;37.85;23.71
47524;BME280;33253;42.144;25.884;2022-08-19T12:59:01;99769.47;;;38.10;22.83
47524;BME280;33253;42.144;25.884;2022-08-19T13:01:28;99765.53;;;38.24;24.71
47524;BME280;33253;42.144;25.884;2022-08-19T13:03:58;99761.31;;;38.31;25.20
47524;BME280;33253;42.144;25.884;2022-08-19T13:06:23;99768.47;;;38.11;24.86
47524;BME280;33253;42.144;25.884;2022-08-19T13:08:49;99760.81;;;38.06;24.91
47524;BME280;33253;42.144;25.884;2022-08-19T13:11:16;99769.81;;;37.85;24.69
47524;BME280;33253;42.144;25.884;2022-08-19T13:13:45;99759.38;;;38.12;24.94